Time;durP1;ratioP1;P1;durP2;ratioP2;P2;SDS_P1;SDS_P2;PMS_P1;PMS_P2;Temp;Humidity;BMP_temperature;BMP_pressure;BME280_temperature;BME280_humidity;BME280_pressure;Samples;Min_cycle;Max_cycle;Signal;HPM_P1;HPM_P2
2021/08/02 00:00:48;;;;;;;0.40;0.37;;;14.90;99.90;;;;;;5053709;28;20465;-80
2021/08/02 00:03:26;;;;;;;0.40;0.30;;;14.90;99.90;;;;;;5053824;28;20491;-80
2021/08/02 00:05:57;;;;;;;0.90;0.60;;;14.90;99.90;;;;;;5053811;28;20418;-79
2021/08/02 00:08:26;;;;;;;0.40;0.40;;;14.90;99.90;;;;;;5053772;28;20433;-80
2021/08/02 00:10:54;;;;;;;0.70;0.50;;;14.90;99.90;;;;;;5053326;28;20462;-80
2021/08/02 00:13:29;;;;;;;0.40;0.40;;;14.90;99.90;;;;;;5053647;28;20449;-80
2021/08/02 00:15:57;;;;;;;0.50;0.50;;;14.90;99.90;;;;;;5053649;28;20433;-79
2021/08/02 00:18:25;;;;;;;0.53;0.53;;;14.90;99.90;;;;;;5053485;28;20489;-79
2021/08/02 00:20:53;;;;;;;0.50;0.50;;;14.90;99.90;;;;;;5053130;28;20469;-80
2021/08/02 00:23:22;;;;;;;0.60;0.50;;;14.80;99.90;;;;;;5053505;28;20452;-81
2021/08/02 00:25:49;;;;;;;1.27;0.50;;;14.80;99.90;;;;;;5053452;28;20453;-79
2021/08/02 00:28:17;;;;;;;0.50;0.43;;;14.80;99.90;;;;;;5053413;28;20446;-79
2021/08/02 00:30:45;;;;;;;0.40;0.40;;;14.80;99.90;;;;;;5053321;28;20832;-79
2021/08/02 00:33:12;;;;;;;0.47;0.40;;;14.80;99.90;;;;;;5053108;28;20802;-79
2021/08/02 00:35:56;;;;;;;0.73;0.37;;;14.90;99.90;;;;;;5053069;28;20477;-79
2021/08/02 00:38:30;;;;;;;0.73;0.73;;;14.90;99.90;;;;;;5053283;28;20470;-79
2021/08/02 00:41:19;;;;;;;0.80;0.43;;;14.90;99.90;;;;;;5053309;28;20481;-79
2021/08/02 00:44:33;;;;;;;2.60;0.40;;;14.90;99.90;;;;;;5052999;28;20437;-79
2021/08/02 00:47:04;;;;;;;0.40;0.30;;;15.00;99.90;;;;;;4982694;28;20820;-79
2021/08/02 00:49:31;;;;;;;0.40;0.40;;;15.00;99.90;;;;;;5053197;28;20499;-79
2021/08/02 00:51:59;;;;;;;0.57;0.37;;;14.90;99.90;;;;;;5053073;28;20474;-79
2021/08/02 00:54:28;;;;;;;0.40;0.40;;;15.00;99.90;;;;;;5052913;28;20433;-80
2021/08/02 00:56:59;;;;;;;0.50;0.50;;;14.90;99.90;;;;;;5052748;28;20485;-79
2021/08/02 00:59:28;;;;;;;0.57;0.37;;;14.90;99.90;;;;;;5053132;28;20457;-79
2021/08/02 01:01:55;;;;;;;0.40;0.40;;;15.00;99.90;;;;;;5053070;28;20466;-79
2021/08/02 01:04:24;;;;;;;0.40;0.30;;;14.90;99.90;;;;;;5053087;28;20442;-79
2021/08/02 01:06:53;;;;;;;0.40;0.30;;;15.00;99.90;;;;;;5053511;28;20495;-79
2021/08/02 01:09:21;;;;;;;0.33;0.30;;;14.90;99.90;;;;;;5057162;28;20430;-79
2021/08/02 01:11:52;;;;;;;0.60;0.50;;;14.90;99.90;;;;;;5056966;28;20469;-80
2021/08/02 01:14:21;;;;;;;1.10;0.43;;;14.90;99.90;;;;;;5057001;28;20480;-79
2021/08/02 01:16:48;;;;;;;0.60;0.40;;;15.00;99.90;;;;;;5056869;28;20488;-79
2021/08/02 01:19:16;;;;;;;0.43;0.40;;;15.00;99.90;;;;;;5056937;28;20438;-79
2021/08/02 01:21:46;;;;;;;0.70;0.43;;;15.00;99.90;;;;;;5056477;28;20473;-79
2021/08/02 01:24:14;;;;;;;0.50;0.50;;;15.00;99.90;;;;;;5056785;28;20454;-79
2021/08/02 01:27:11;;;;;;;0.60;0.30;;;15.00;99.90;;;;;;5056762;28;20475;-79
2021/08/02 01:30:17;;;;;;;0.40;0.40;;;15.10;99.90;;;;;;5029883;28;20983;-79
2021/08/02 01:32:45;;;;;;;0.30;0.30;;;15.00;99.90;;;;;;5051524;28;20964;-79
2021/08/02 01:35:13;;;;;;;0.50;0.30;;;15.00;99.90;;;;;;5056268;28;20481;-79
2021/08/02 01:37:41;;;;;;;0.40;0.40;;;15.00;99.90;;;;;;5056499;28;20473;-79
2021/08/02 01:40:10;;;;;;;0.30;0.30;;;15.00;99.90;;;;;;5057018;28;20469;-79
2021/08/02 01:42:37;;;;;;;0.60;0.50;;;15.00;99.90;;;;;;5056504;28;20446;-79
2021/08/02 01:45:05;;;;;;;1.33;0.50;;;15.00;99.90;;;;;;5056119;28;20944;-79
2021/08/02 01:47:38;;;;;;;0.70;0.70;;;15.00;99.90;;;;;;5056058;28;20446;-79
2021/08/02 01:50:11;;;;;;;0.40;0.40;;;15.00;99.90;;;;;;5056455;28;20470;-79
2021/08/02 01:52:46;;;;;;;0.80;0.53;;;15.00;99.90;;;;;;5056305;28;20441;-79
2021/08/02 01:55:18;;;;;;;0.70;0.60;;;14.90;99.90;;;;;;5056270;28;20433;-79
2021/08/02 01:57:53;;;;;;;0.37;0.30;;;14.90;99.90;;;;;;5056139;28;20473;-79
2021/08/02 02:00:20;;;;;;;0.60;0.50;;;14.90;99.90;;;;;;5056077;28;20519;-79
2021/08/02 02:02:55;;;;;;;0.30;0.30;;;14.90;99.90;;;;;;5056016;28;20452;-79
2021/08/02 02:05:26;;;;;;;0.73;0.43;;;14.90;99.90;;;;;;5056065;28;20438;-79
2021/08/02 02:07:58;;;;;;;1.03;0.50;;;14.90;99.90;;;;;;5055999;28;20437;-79
2021/08/02 02:10:30;;;;;;;0.33;0.33;;;14.90;99.90;;;;;;5055635;28;20469;-79
2021/08/02 02:12:57;;;;;;;1.23;0.40;;;14.90;99.90;;;;;;5055976;28;20445;-79
2021/08/02 02:15:24;;;;;;;0.50;0.30;;;14.80;99.90;;;;;;5055622;28;20434;-79
2021/08/02 02:17:51;;;;;;;0.40;0.30;;;14.80;99.90;;;;;;5055751;28;20484;-79
2021/08/02 02:20:20;;;;;;;0.70;0.63;;;14.80;99.90;;;;;;5055049;28;20474;-79
2021/08/02 02:22:47;;;;;;;0.40;0.40;;;14.80;99.90;;;;;;5055474;28;20442;-80
2021/08/02 02:25:14;;;;;;;0.60;0.40;;;14.80;99.90;;;;;;5055696;28;20456;-79
2021/08/02 02:27:43;;;;;;;0.40;0.40;;;14.80;99.90;;;;;;5055655;28;20442;-80
2021/08/02 02:30:11;;;;;;;0.50;0.40;;;14.80;99.90;;;;;;5055273;28;20504;-80
2021/08/02 02:32:39;;;;;;;0.40;0.40;;;14.80;99.90;;;;;;5055545;28;20461;-80
2021/08/02 02:35:07;;;;;;;1.33;0.40;;;14.70;99.90;;;;;;5055176;28;20482;-80
2021/08/02 02:37:34;;;;;;;0.43;0.30;;;14.70;99.90;;;;;;5055356;28;20489;-79
2021/08/02 02:40:03;;;;;;;0.80;0.70;;;14.80;99.90;;;;;;5055357;28;20818;-79
2021/08/02 02:42:31;;;;;;;0.40;0.37;;;14.70;99.90;;;;;;5055071;28;20442;-79
2021/08/02 02:45:01;;;;;;;0.73;0.50;;;14.70;99.90;;;;;;5055322;28;20453;-79
2021/08/02 02:47:30;;;;;;;0.73;0.57;;;14.70;99.90;;;;;;5055265;28;20450;-79
2021/08/02 02:49:59;;;;;;;1.03;0.40;;;14.70;99.90;;;;;;5055169;28;20582;-79
2021/08/02 02:52:27;;;;;;;0.30;0.30;;;14.60;99.90;;;;;;5054942;28;20925;-79
2021/08/02 02:54:55;;;;;;;0.40;0.40;;;14.60;99.90;;;;;;5055160;28;20441;-79
2021/08/02 02:57:22;;;;;;;0.50;0.40;;;14.70;99.90;;;;;;5054780;28;20480;-79
2021/08/02 02:59:49;;;;;;;0.40;0.30;;;14.70;99.90;;;;;;5054962;28;20442;-80
2021/08/02 03:02:20;;;;;;;0.60;0.30;;;14.60;99.90;;;;;;5055027;28;20473;-79
2021/08/02 03:04:51;;;;;;;0.30;0.30;;;14.60;99.90;;;;;;5055009;28;20445;-79
2021/08/02 03:07:19;;;;;;;0.40;0.40;;;14.70;99.90;;;;;;5054613;28;20935;-79
2021/08/02 03:09:49;;;;;;;0.53;0.40;;;14.60;99.90;;;;;;5054825;28;20456;-79
2021/08/02 03:12:15;;;;;;;0.60;0.50;;;14.60;99.90;;;;;;5054496;28;20450;-79
2021/08/02 03:14:42;;;;;;;1.90;0.50;;;14.60;99.90;;;;;;5054476;28;20471;-80
2021/08/02 03:17:10;;;;;;;0.40;0.40;;;14.60;99.90;;;;;;5054333;28;20959;-79
2021/08/02 03:19:39;;;;;;;0.70;0.70;;;14.50;99.90;;;;;;5054652;28;20445;-79
2021/08/02 03:22:17;;;;;;;0.70;0.40;;;14.50;99.90;;;;;;5054206;28;20461;-79
2021/08/02 03:24:46;;;;;;;0.60;0.60;;;14.50;99.90;;;;;;5054659;28;20434;-79
2021/08/02 03:27:23;;;;;;;0.40;0.30;;;14.50;99.90;;;;;;5054288;28;21007;-79
2021/08/02 03:29:52;;;;;;;0.57;0.40;;;14.50;99.90;;;;;;5054013;28;20753;-79
2021/08/02 03:32:21;;;;;;;1.17;0.40;;;14.50;99.90;;;;;;5053378;28;20440;-78
2021/08/02 03:34:53;;;;;;;0.50;0.40;;;14.50;99.90;;;;;;5054014;28;20486;-78
2021/08/02 03:37:22;;;;;;;0.40;0.40;;;14.60;99.90;;;;;;5054278;28;20438;-78
2021/08/02 03:39:50;;;;;;;0.60;0.40;;;14.60;99.90;;;;;;5054188;28;20472;-78
2021/08/02 03:42:18;;;;;;;0.50;0.50;;;14.50;99.90;;;;;;5054222;28;20450;-78
2021/08/02 03:44:46;;;;;;;0.40;0.30;;;14.50;99.90;;;;;;5054205;28;20473;-78
2021/08/02 03:47:13;;;;;;;0.40;0.30;;;14.50;99.90;;;;;;5054140;28;20462;-78
2021/08/02 03:49:40;;;;;;;0.77;0.40;;;14.50;99.90;;;;;;5054783;28;20449;-78
2021/08/02 03:52:09;;;;;;;0.87;0.80;;;14.50;99.90;;;;;;5053665;28;20458;-78
2021/08/02 03:54:35;;;;;;;0.30;0.30;;;14.50;99.90;;;;;;5054019;28;20452;-78
2021/08/02 03:57:03;;;;;;;0.40;0.40;;;14.50;99.90;;;;;;5054648;28;20454;-78
2021/08/02 03:59:30;;;;;;;0.40;0.40;;;14.50;99.90;;;;;;5053516;28;20486;-78
2021/08/02 04:01:57;;;;;;;0.80;0.40;;;14.50;99.90;;;;;;5053829;28;20473;-78
2021/08/02 04:04:23;;;;;;;0.50;0.50;;;14.50;99.90;;;;;;5053535;28;20446;-78
2021/08/02 04:06:50;;;;;;;0.60;0.30;;;14.50;99.90;;;;;;5053773;28;20465;-78
2021/08/02 04:09:18;;;;;;;0.73;0.40;;;14.50;99.90;;;;;;5053461;28;20815;-79
2021/08/02 04:11:45;;;;;;;0.40;0.40;;;14.60;99.90;;;;;;5053409;28;20984;-78
2021/08/02 04:14:13;;;;;;;1.50;0.43;;;14.50;99.90;;;;;;5053677;28;20442;-78
2021/08/02 04:16:40;;;;;;;0.77;0.60;;;14.60;99.90;;;;;;5053723;28;20453;-78
2021/08/02 04:19:07;;;;;;;0.40;0.40;;;14.60;99.90;;;;;;5053503;28;20488;-78
2021/08/02 04:21:34;;;;;;;0.87;0.63;;;14.50;99.90;;;;;;5053490;28;20909;-78
2021/08/02 04:24:01;;;;;;;0.40;0.40;;;14.60;99.90;;;;;;5053526;28;20446;-78
2021/08/02 04:26:29;;;;;;;0.30;0.30;;;14.60;99.90;;;;;;5053505;28;20460;-78
2021/08/02 04:28:57;;;;;;;1.50;0.47;;;14.60;99.90;;;;;;5053235;28;20449;-79
2021/08/02 04:31:24;;;;;;;0.80;0.47;;;14.60;99.90;;;;;;5053309;28;20470;-78
2021/08/02 04:33:51;;;;;;;1.37;0.70;;;14.60;99.90;;;;;;5053177;28;20446;-79
2021/08/02 04:36:19;;;;;;;1.17;0.50;;;14.60;99.90;;;;;;5053102;28;20936;-78
2021/08/02 04:38:46;;;;;;;0.47;0.40;;;14.60;99.90;;;;;;5052953;28;20858;-78
2021/08/02 04:41:13;;;;;;;0.40;0.30;;;14.60;99.90;;;;;;5053235;28;20474;-78
2021/08/02 04:43:41;;;;;;;1.17;0.60;;;14.60;99.90;;;;;;5052963;28;20458;-78
2021/08/02 04:46:08;;;;;;;0.40;0.40;;;14.60;99.90;;;;;;5053669;28;20457;-78
2021/08/02 04:48:35;;;;;;;0.80;0.50;;;14.60;99.90;;;;;;5052979;28;20438;-79
2021/08/02 04:51:02;;;;;;;0.97;0.40;;;14.60;99.90;;;;;;5053152;28;20472;-78
2021/08/02 04:53:29;;;;;;;0.40;0.30;;;14.70;99.90;;;;;;5053208;28;20466;-78
2021/08/02 04:55:55;;;;;;;0.70;0.60;;;14.60;99.90;;;;;;5052836;28;20446;-78
2021/08/02 04:58:22;;;;;;;0.53;0.33;;;14.60;99.90;;;;;;5053072;28;20492;-78
2021/08/02 05:00:50;;;;;;;0.40;0.30;;;14.70;99.90;;;;;;5052833;28;21004;-78
2021/08/02 05:03:17;;;;;;;0.83;0.47;;;14.70;99.90;;;;;;5053098;28;20456;-78
2021/08/02 05:05:44;;;;;;;0.90;0.30;;;14.70;99.90;;;;;;5052763;28;20458;-78
2021/08/02 05:08:11;;;;;;;0.53;0.50;;;14.70;99.90;;;;;;5053069;28;20441;-78
2021/08/02 05:10:38;;;;;;;0.87;0.50;;;14.70;99.90;;;;;;5052656;28;20477;-78
2021/08/02 05:13:04;;;;;;;0.50;0.50;;;14.70;99.90;;;;;;5052690;28;20456;-78
2021/08/02 05:15:32;;;;;;;1.27;0.50;;;14.70;99.90;;;;;;5052966;28;20460;-78
2021/08/02 05:18:00;;;;;;;0.50;0.37;;;14.70;99.90;;;;;;5052892;28;20485;-78
2021/08/02 05:20:26;;;;;;;0.97;0.57;;;14.70;99.90;;;;;;5052592;28;20461;-78
2021/08/02 05:22:53;;;;;;;0.70;0.67;;;14.70;99.90;;;;;;5052906;28;20453;-78
2021/08/02 05:25:20;;;;;;;0.67;0.50;;;14.70;99.90;;;;;;5052594;28;20976;-78
2021/08/02 05:27:51;;;;;;;0.60;0.60;;;14.70;99.90;;;;;;5052873;28;20456;-78
2021/08/02 05:30:18;;;;;;;1.70;0.73;;;14.70;99.90;;;;;;5052757;28;20484;-78
2021/08/02 05:32:45;;;;;;;1.00;0.53;;;14.70;99.90;;;;;;5052846;28;20446;-78
2021/08/02 05:35:14;;;;;;;0.50;0.50;;;14.80;99.90;;;;;;5052392;28;20488;-78
2021/08/02 05:37:41;;;;;;;0.40;0.30;;;14.80;99.90;;;;;;5052733;28;20446;-78
2021/08/02 05:40:08;;;;;;;0.50;0.50;;;14.70;99.90;;;;;;5052631;28;20489;-78
2021/08/02 05:42:36;;;;;;;2.73;0.60;;;14.80;99.90;;;;;;5052637;28;20456;-78
2021/08/02 05:45:03;;;;;;;0.60;0.60;;;14.80;99.90;;;;;;5052773;28;20499;-78
2021/08/02 05:47:30;;;;;;;0.50;0.50;;;14.80;99.90;;;;;;5052667;28;20454;-78
2021/08/02 05:49:57;;;;;;;0.40;0.40;;;14.80;99.90;;;;;;5052606;28;20446;-78
2021/08/02 05:52:25;;;;;;;0.30;0.30;;;14.80;99.90;;;;;;5052447;28;20434;-78
2021/08/02 05:54:52;;;;;;;0.90;0.40;;;14.80;99.90;;;;;;5054508;28;20460;-78
2021/08/02 05:57:22;;;;;;;0.80;0.37;;;14.80;99.90;;;;;;5055955;28;20964;-78
2021/08/02 05:59:49;;;;;;;0.40;0.40;;;14.90;99.90;;;;;;5056042;28;20481;-78
2021/08/02 06:02:16;;;;;;;0.50;0.50;;;14.90;99.90;;;;;;5056135;28;20454;-78
2021/08/02 06:04:43;;;;;;;0.40;0.40;;;14.90;99.90;;;;;;5056093;28;20450;-78
2021/08/02 06:07:10;;;;;;;0.40;0.40;;;14.90;99.90;;;;;;5056043;28;20446;-79
2021/08/02 06:09:38;;;;;;;0.40;0.30;;;14.90;99.90;;;;;;5055983;28;20445;-78
2021/08/02 06:12:05;;;;;;;0.50;0.50;;;15.00;99.90;;;;;;5055933;28;20488;-78
2021/08/02 06:14:32;;;;;;;0.40;0.40;;;15.00;99.90;;;;;;5055924;28;20449;-78
2021/08/02 06:16:59;;;;;;;0.40;0.30;;;15.10;99.90;;;;;;5055901;28;20450;-78
2021/08/02 06:19:25;;;;;;;0.40;0.30;;;15.10;99.90;;;;;;5055801;28;20482;-78
2021/08/02 06:21:52;;;;;;;0.40;0.40;;;15.20;99.90;;;;;;5055479;28;20457;-80
2021/08/02 06:24:19;;;;;;;0.90;0.90;;;15.20;99.90;;;;;;5055739;28;20454;-80
2021/08/02 06:26:47;;;;;;;0.60;0.60;;;15.30;99.90;;;;;;5055694;28;20450;-79
2021/08/02 06:29:14;;;;;;;0.40;0.40;;;15.40;99.90;;;;;;5055955;28;20452;-79
2021/08/02 06:31:41;;;;;;;0.50;0.50;;;15.50;99.90;;;;;;5055454;28;20469;-79
2021/08/02 06:34:07;;;;;;;0.80;0.43;;;15.60;99.90;;;;;;5055277;28;20490;-79
2021/08/02 06:36:34;;;;;;;0.50;0.50;;;15.70;99.90;;;;;;5055486;28;20430;-79
2021/08/02 06:39:01;;;;;;;0.87;0.47;;;15.70;99.90;;;;;;5055405;28;20848;-79
2021/08/02 06:41:28;;;;;;;0.63;0.60;;;15.80;99.90;;;;;;5055048;28;20470;-78
2021/08/02 06:43:56;;;;;;;0.40;0.40;;;15.90;99.90;;;;;;5055445;28;20437;-79
2021/08/02 06:46:23;;;;;;;5.70;0.83;;;16.00;99.90;;;;;;5055067;28;20438;-79
2021/08/02 06:48:49;;;;;;;0.60;0.33;;;16.00;99.90;;;;;;5055335;28;20430;-78
2021/08/02 06:51:18;;;;;;;0.47;0.40;;;16.10;99.90;;;;;;5055212;28;20481;-78
2021/08/02 06:53:45;;;;;;;1.17;0.53;;;16.10;99.90;;;;;;5054908;28;20949;-78
2021/08/02 06:56:12;;;;;;;0.40;0.40;;;16.10;99.90;;;;;;5055167;28;20446;-78
2021/08/02 06:58:38;;;;;;;0.60;0.47;;;16.20;99.90;;;;;;5055018;28;20485;-78
2021/08/02 07:01:06;;;;;;;0.33;0.33;;;16.20;99.90;;;;;;5054696;28;20472;-78
2021/08/02 07:03:33;;;;;;;0.50;0.50;;;16.20;99.90;;;;;;5055034;28;20442;-78
2021/08/02 07:06:00;;;;;;;0.50;0.50;;;16.20;99.90;;;;;;5054767;28;20457;-78
2021/08/02 07:08:26;;;;;;;0.60;0.60;;;16.20;99.90;;;;;;5054924;28;20450;-78
2021/08/02 07:10:53;;;;;;;0.33;0.33;;;16.20;99.90;;;;;;5054825;28;20477;-78
2021/08/02 07:13:20;;;;;;;0.60;0.50;;;16.20;99.90;;;;;;5054534;28;20945;-78
2021/08/02 07:15:47;;;;;;;0.80;0.50;;;16.30;99.90;;;;;;5054428;28;20452;-78
2021/08/02 07:18:15;;;;;;;0.73;0.40;;;16.30;99.90;;;;;;5054696;28;20461;-78
2021/08/02 07:20:42;;;;;;;0.70;0.50;;;16.30;99.90;;;;;;5054625;28;20848;-78
2021/08/02 07:23:08;;;;;;;0.50;0.50;;;16.30;99.90;;;;;;5054323;28;20872;-78
2021/08/02 07:25:35;;;;;;;1.10;0.60;;;16.40;99.90;;;;;;5054333;28;20436;-78
2021/08/02 07:28:02;;;;;;;0.50;0.47;;;16.50;99.90;;;;;;5054254;28;20454;-78
2021/08/02 07:30:29;;;;;;;1.00;0.53;;;16.50;99.90;;;;;;5054100;28;20837;-78
2021/08/02 07:32:56;;;;;;;0.50;0.43;;;16.60;99.90;;;;;;5054438;28;20445;-78
2021/08/02 07:35:24;;;;;;;0.77;0.57;;;16.80;99.90;;;;;;5054004;28;20567;-78
2021/08/02 07:37:50;;;;;;;0.53;0.50;;;16.90;99.90;;;;;;5054324;28;20457;-78
2021/08/02 07:40:17;;;;;;;0.83;0.50;;;17.00;99.90;;;;;;5054154;28;20496;-77
2021/08/02 07:42:44;;;;;;;1.03;0.40;;;17.10;99.90;;;;;;5054262;28;20434;-78
2021/08/02 07:45:11;;;;;;;0.87;0.57;;;17.20;99.90;;;;;;5054160;28;20445;-78
2021/08/02 07:47:38;;;;;;;0.50;0.40;;;17.20;99.90;;;;;;5054150;28;20460;-78
2021/08/02 07:50:07;;;;;;;0.30;0.30;;;17.30;99.90;;;;;;5054056;28;20449;-78
2021/08/02 07:52:35;;;;;;;0.67;0.67;;;17.40;99.90;;;;;;5054055;28;20789;-78
2021/08/02 07:55:02;;;;;;;0.40;0.40;;;17.60;99.90;;;;;;5054058;28;20800;-77
2021/08/02 07:57:32;;;;;;;0.70;0.47;;;17.60;99.90;;;;;;5054040;28;20438;-78
2021/08/02 08:00:01;;;;;;;0.47;0.47;;;17.60;99.90;;;;;;5053510;28;20478;-78
2021/08/02 08:02:27;;;;;;;0.60;0.50;;;17.70;99.90;;;;;;5053857;28;20449;-78
2021/08/02 08:04:54;;;;;;;0.60;0.40;;;17.80;99.90;;;;;;5053871;28;20454;-78
2021/08/02 08:07:21;;;;;;;1.80;0.40;;;17.90;99.90;;;;;;5053838;28;20441;-78
2021/08/02 08:09:49;;;;;;;0.63;0.50;;;18.20;99.90;;;;;;5053381;28;20929;-78
2021/08/02 08:12:16;;;;;;;0.70;0.50;;;18.50;99.90;;;;;;5053443;28;20446;-78
2021/08/02 08:14:42;;;;;;;1.97;0.67;;;18.60;99.90;;;;;;5053375;28;20962;-78
2021/08/02 08:17:09;;;;;;;0.93;0.50;;;18.70;99.90;;;;;;5053098;28;20461;-78
2021/08/02 08:19:36;;;;;;;0.40;0.33;;;18.60;99.90;;;;;;5053552;28;20493;-77
2021/08/02 08:22:03;;;;;;;0.53;0.53;;;18.50;99.90;;;;;;5053490;28;20462;-78
2021/08/02 08:24:30;;;;;;;0.50;0.50;;;18.50;99.90;;;;;;5053424;28;20457;-77
2021/08/02 08:26:58;;;;;;;0.50;0.50;;;18.50;99.90;;;;;;5053514;28;20472;-78
2021/08/02 08:29:26;;;;;;;0.60;0.40;;;18.50;99.90;;;;;;5053471;28;20446;-78
2021/08/02 08:31:53;;;;;;;0.50;0.50;;;18.50;99.90;;;;;;5053692;28;20535;-78
2021/08/02 08:34:20;;;;;;;0.40;0.40;;;18.50;99.90;;;;;;5052936;28;21095;-78
2021/08/02 08:36:47;;;;;;;0.60;0.60;;;18.60;99.90;;;;;;5053108;28;20434;-77
2021/08/02 08:39:13;;;;;;;0.60;0.60;;;18.80;99.90;;;;;;5053247;28;20485;-78
2021/08/02 08:41:43;;;;;;;0.87;0.53;;;19.10;99.90;;;;;;5053302;28;20473;-77
2021/08/02 08:44:11;;;;;;;0.60;0.40;;;19.20;99.90;;;;;;5053343;28;20449;-78
2021/08/02 08:46:38;;;;;;;0.40;0.40;;;19.20;99.90;;;;;;5053262;28;20441;-77
2021/08/02 08:49:04;;;;;;;0.50;0.50;;;19.40;99.90;;;;;;5052903;28;20484;-78
2021/08/02 08:51:33;;;;;;;0.77;0.40;;;19.50;99.90;;;;;;5052859;28;20560;-77
2021/08/02 08:54:00;;;;;;;0.40;0.40;;;19.40;99.90;;;;;;5053189;28;20472;-77
2021/08/02 08:56:27;;;;;;;0.60;0.40;;;19.50;99.90;;;;;;5053171;28;20449;-78
2021/08/02 08:58:53;;;;;;;0.43;0.43;;;19.70;99.90;;;;;;5053052;28;20450;-78
2021/08/02 09:01:28;;;;;;;0.50;0.40;;;19.80;99.90;;;;;;5052755;28;20843;-78
2021/08/02 09:03:57;;;;;;;0.40;0.40;;;19.90;99.90;;;;;;5053186;28;20440;-78
2021/08/02 09:06:24;;;;;;;0.50;0.50;;;19.90;99.90;;;;;;5053098;28;20503;-78
2021/08/02 09:08:51;;;;;;;0.70;0.60;;;19.90;99.90;;;;;;5053088;28;20449;-78
2021/08/02 09:11:19;;;;;;;0.73;0.53;;;19.90;99.90;;;;;;5052706;28;21002;-76
2021/08/02 09:13:46;;;;;;;1.60;0.63;;;19.80;99.90;;;;;;5053118;28;20421;-77
2021/08/02 09:16:15;;;;;;;0.40;0.40;;;19.80;99.90;;;;;;5052980;28;20457;-76
2021/08/02 09:18:46;;;;;;;0.50;0.50;;;19.90;99.90;;;;;;5052982;28;20441;-78
2021/08/02 09:21:13;;;;;;;1.23;0.60;;;20.10;99.90;;;;;;5052496;28;20496;-78
2021/08/02 09:23:48;;;;;;;0.40;0.40;;;20.10;99.90;;;;;;5052986;28;20434;-78
2021/08/02 09:26:14;;;;;;;0.90;0.80;;;20.20;99.90;;;;;;5052935;28;20433;-78
2021/08/02 09:28:52;;;;;;;0.50;0.50;;;20.30;99.90;;;;;;5052922;28;20449;-78
2021/08/02 09:31:18;;;;;;;0.50;0.50;;;20.60;99.90;;;;;;5056674;28;20460;-79
2021/08/02 09:33:48;;;;;;;0.50;0.50;;;20.80;99.90;;;;;;5056164;28;20971;-81
2021/08/02 09:36:16;;;;;;;0.50;0.50;;;21.10;99.90;;;;;;5056545;28;20456;-78
2021/08/02 09:38:43;;;;;;;0.80;0.50;;;21.00;99.90;;;;;;5056684;28;20448;-78
2021/08/02 09:41:19;;;;;;;0.63;0.40;;;21.10;99.90;;;;;;5056356;28;20477;-79
2021/08/02 09:43:51;;;;;;;0.50;0.50;;;21.00;99.90;;;;;;5056581;28;20429;-79
2021/08/02 09:46:18;;;;;;;0.50;0.50;;;20.90;99.90;;;;;;5056494;28;20433;-79
2021/08/02 09:48:47;;;;;;;0.30;0.30;;;20.90;99.90;;;;;;5056147;28;20961;-78
2021/08/02 09:51:16;;;;;;;0.50;0.40;;;21.10;99.90;;;;;;5056268;28;20464;-79
2021/08/02 09:53:45;;;;;;;1.33;0.40;;;21.30;99.90;;;;;;5056027;28;20449;-78
2021/08/02 09:56:13;;;;;;;0.63;0.50;;;21.50;99.90;;;;;;5056063;28;20954;-79
2021/08/02 09:58:42;;;;;;;0.50;0.50;;;21.70;99.90;;;;;;5055957;28;20848;-79
2021/08/02 10:01:09;;;;;;;1.17;0.50;;;21.80;99.90;;;;;;5056081;28;20495;-78
2021/08/02 10:03:37;;;;;;;0.50;0.50;;;21.90;99.90;;;;;;5056222;28;20885;-79
2021/08/02 10:06:06;;;;;;;0.40;0.40;;;21.80;99.90;;;;;;5048167;28;20417;-79
2021/08/02 10:08:34;;;;;;;0.50;0.40;;;21.50;99.90;;;;;;5056181;28;20426;-78
2021/08/02 10:11:00;;;;;;;0.40;0.40;;;21.10;99.90;;;;;;5055651;28;20976;-78
2021/08/02 10:13:29;;;;;;;0.50;0.50;;;20.60;99.90;;;;;;5056067;28;20429;-79
2021/08/02 10:15:59;;;;;;;1.17;0.80;;;20.40;99.90;;;;;;5055814;28;20453;-79
2021/08/02 10:18:28;;;;;;;0.40;0.30;;;20.10;99.90;;;;;;5056030;28;20487;-80
2021/08/02 10:21:05;;;;;;;0.80;0.50;;;19.90;99.90;;;;;;5055313;28;20485;-79
2021/08/02 10:23:32;;;;;;;0.60;0.60;;;19.70;99.90;;;;;;5055515;28;20900;-78
2021/08/02 10:25:59;;;;;;;0.60;0.60;;;19.90;99.90;;;;;;5055743;28;20433;-78
2021/08/02 10:28:26;;;;;;;0.50;0.40;;;20.40;99.90;;;;;;5055686;28;20406;-78
2021/08/02 10:31:02;;;;;;;0.53;0.53;;;21.00;99.90;;;;;;5055579;28;20468;-79
2021/08/02 10:33:33;;;;;;;0.50;0.50;;;21.50;99.90;;;;;;5055684;28;20488;-78
2021/08/02 10:36:12;;;;;;;0.50;0.50;;;21.80;99.90;;;;;;5055030;28;20481;-79
2021/08/02 10:38:41;;;;;;;0.40;0.40;;;21.70;99.90;;;;;;5055557;28;20492;-78
2021/08/02 10:41:08;;;;;;;0.63;0.50;;;21.40;99.90;;;;;;5054571;28;20477;-79
2021/08/02 10:43:36;;;;;;;1.33;0.50;;;21.10;99.90;;;;;;5055490;28;20434;-78
2021/08/02 10:46:16;;;;;;;0.40;0.40;;;20.80;99.90;;;;;;5047148;28;20790;-78
2021/08/02 10:48:43;;;;;;;0.50;0.50;;;20.60;99.90;;;;;;5055802;28;20449;-79
2021/08/02 10:51:13;;;;;;;0.50;0.50;;;20.40;99.90;;;;;;5055287;28;20466;-79
2021/08/02 10:53:41;;;;;;;0.40;0.40;;;20.30;99.90;;;;;;5055222;28;20441;-78
2021/08/02 10:56:08;;;;;;;0.77;0.40;;;20.20;99.90;;;;;;5054794;28;20825;-79
2021/08/02 10:58:38;;;;;;;0.50;0.50;;;20.10;99.90;;;;;;5055166;28;20460;-79
2021/08/02 11:01:06;;;;;;;0.70;0.50;;;19.80;99.90;;;;;;5047013;28;20532;-79
2021/08/02 11:03:35;;;;;;;0.40;0.30;;;19.60;99.90;;;;;;5054993;28;20441;-80
2021/08/02 11:06:07;;;;;;;0.40;0.30;;;19.30;99.90;;;;;;5046904;28;20437;-79
2021/08/02 11:08:47;;;;;;;0.30;0.27;;;19.10;99.90;;;;;;5054866;28;20511;-78
2021/08/02 11:11:26;;;;;;;0.40;0.40;;;18.90;99.90;;;;;;5048283;28;20458;-85
2021/08/02 11:14:04;;;;;;;0.60;0.40;;;18.80;99.90;;;;;;5054830;28;20430;-79
2021/08/02 11:16:31;;;;;;;0.53;0.40;;;18.90;99.90;;;;;;5054516;28;20799;-79
2021/08/02 11:18:57;;;;;;;0.40;0.40;;;19.30;99.90;;;;;;5054634;28;20453;-79
2021/08/02 11:21:26;;;;;;;0.60;0.40;;;19.60;99.90;;;;;;5054506;28;20493;-79
2021/08/02 11:23:55;;;;;;;0.50;0.47;;;20.00;99.90;;;;;;5054618;28;20456;-79
2021/08/02 11:26:23;;;;;;;0.40;0.40;;;20.30;99.90;;;;;;5054861;28;20430;-78
2021/08/02 11:28:54;;;;;;;0.50;0.37;;;20.60;99.90;;;;;;5054617;28;20503;-78
2021/08/02 11:31:25;;;;;;;0.40;0.40;;;20.70;99.90;;;;;;5054203;28;20469;-78
2021/08/02 11:33:52;;;;;;;0.53;0.40;;;20.70;99.90;;;;;;5054308;28;20430;-79
2021/08/02 11:36:21;;;;;;;0.50;0.50;;;20.80;99.90;;;;;;5054448;28;20440;-78
2021/08/02 11:38:49;;;;;;;0.50;0.40;;;20.90;99.90;;;;;;5054412;28;20453;-78
2021/08/02 11:41:28;;;;;;;0.73;0.53;;;21.10;99.90;;;;;;5053891;28;20865;-78
2021/08/02 11:43:57;;;;;;;0.50;0.50;;;20.80;99.90;;;;;;5054574;28;20531;-78
2021/08/02 11:46:24;;;;;;;0.50;0.40;;;20.60;99.90;;;;;;5054094;28;20445;-78
2021/08/02 11:48:52;;;;;;;0.40;0.40;;;20.40;99.90;;;;;;5054134;28;20532;-78
2021/08/02 11:51:20;;;;;;;0.50;0.50;;;20.20;99.90;;;;;;5053280;28;20457;-78
2021/08/02 11:53:47;;;;;;;0.57;0.50;;;20.10;99.90;;;;;;5053911;28;20445;-78
2021/08/02 11:56:14;;;;;;;0.40;0.30;;;20.00;99.90;;;;;;5054087;28;20445;-78
2021/08/02 11:58:44;;;;;;;0.60;0.50;;;19.90;99.90;;;;;;5053711;28;20980;-78
2021/08/02 12:01:12;;;;;;;1.47;0.50;;;20.00;99.90;;;;;;5053823;28;20485;-78
2021/08/02 12:03:39;;;;;;;0.40;0.40;;;20.30;99.90;;;;;;5053679;28;20429;-80
2021/08/02 12:06:07;;;;;;;0.60;0.60;;;20.60;99.90;;;;;;5054056;28;20437;-78
2021/08/02 12:08:34;;;;;;;0.47;0.40;;;20.80;99.90;;;;;;5053834;28;20457;-79
2021/08/02 12:11:02;;;;;;;0.40;0.30;;;20.80;99.90;;;;;;5053694;28;21007;-79
2021/08/02 12:13:42;;;;;;;0.50;0.37;;;20.80;99.90;;;;;;5053616;28;20452;-80
2021/08/02 12:16:10;;;;;;;0.60;0.50;;;20.70;99.90;;;;;;5053720;28;20429;-79
2021/08/02 12:18:38;;;;;;;0.60;0.60;;;20.80;99.90;;;;;;5053660;28;20819;-78
2021/08/02 12:21:14;;;;;;;0.70;0.50;;;20.70;99.90;;;;;;5053409;28;20476;-79
2021/08/02 12:23:42;;;;;;;0.50;0.50;;;20.80;99.90;;;;;;5053845;28;20414;-82
2021/08/02 12:26:17;;;;;;;0.40;0.30;;;21.00;99.90;;;;;;5053425;28;20488;-79
2021/08/02 12:28:45;;;;;;;0.40;0.40;;;21.20;99.90;;;;;;5053222;28;20449;-78
2021/08/02 12:31:14;;;;;;;0.60;0.30;;;21.30;99.90;;;;;;5053427;28;20469;-78
2021/08/02 12:33:42;;;;;;;0.40;0.40;;;21.20;99.90;;;;;;5053105;28;20841;-78
2021/08/02 12:36:08;;;;;;;0.60;0.60;;;21.00;99.90;;;;;;5053026;28;20479;-78
2021/08/02 12:38:35;;;;;;;0.50;0.50;;;20.90;99.90;;;;;;5053698;28;20461;-78
2021/08/02 12:41:05;;;;;;;0.40;0.40;;;20.90;99.90;;;;;;5044854;28;20987;-78
2021/08/02 12:43:32;;;;;;;0.60;0.60;;;20.90;99.90;;;;;;5053627;28;20453;-78
2021/08/02 12:46:00;;;;;;;0.40;0.40;;;20.90;99.90;;;;;;5052965;28;20429;-78
2021/08/02 12:48:27;;;;;;;0.60;0.50;;;20.90;99.90;;;;;;5053016;28;21062;-78
2021/08/02 12:50:54;;;;;;;0.40;0.30;;;20.90;99.90;;;;;;5052791;28;20474;-78
2021/08/02 12:53:21;;;;;;;6.93;0.50;;;20.90;99.90;;;;;;5052984;28;20429;-78
2021/08/02 12:55:47;;;;;;;0.40;0.30;;;20.90;99.90;;;;;;5053212;28;20455;-78